createdAt,value
2022-08-22T00:01:33.990Z,101530.44
2022-08-22T00:02:54.358Z,101512.00
2022-08-22T00:03:03.230Z,101507.84
2022-08-22T00:05:57.351Z,101527.09
2022-08-22T00:10:25.582Z,101522.91
2022-08-22T00:14:58.402Z,101531.56
2022-08-22T00:19:04.600Z,101530.34
2022-08-22T00:23:25.088Z,101531.31
2022-08-22T00:27:34.085Z,101528.94
2022-08-22T00:31:40.385Z,101535.88
2022-08-22T00:35:47.830Z,101537.34
2022-08-22T00:39:55.104Z,101533.38
2022-08-22T00:44:17.127Z,101545.84
2022-08-22T00:48:35.300Z,101539.00
2022-08-22T00:53:11.403Z,101539.03
2022-08-22T00:57:27.720Z,101539.16
2022-08-22T01:01:36.363Z,101539.81
2022-08-22T01:05:37.830Z,101546.69
2022-08-22T01:10:18.948Z,101551.25
2022-08-22T01:14:37.833Z,101550.91
2022-08-22T01:19:13.088Z,101553.13
2022-08-22T01:23:45.652Z,101547.53
2022-08-22T01:28:05.704Z,101543.75
2022-08-22T01:32:48.790Z,101553.97
2022-08-22T01:37:25.637Z,101556.63
2022-08-22T01:41:41.204Z,101557.84
2022-08-22T01:46:20.668Z,101560.84
2022-08-22T01:50:43.643Z,101563.53
2022-08-22T01:54:58.135Z,101562.78
2022-08-22T01:59:11.241Z,101554.00
2022-08-22T02:03:47.732Z,101557.00
2022-08-22T02:08:03.214Z,101546.69
2022-08-22T02:12:26.086Z,101554.41
2022-08-22T02:16:40.740Z,101540.63
2022-08-22T02:20:47.964Z,101553.25
2022-08-22T02:25:08.871Z,101549.59
2022-08-22T02:29:16.351Z,101554.81
2022-08-22T02:33:38.364Z,101560.75
2022-08-22T02:38:07.923Z,101556.63
2022-08-22T02:42:12.312Z,101550.53
2022-08-22T02:46:43.875Z,101546.81
2022-08-22T02:51:25.518Z,101556.88
2022-08-22T02:55:38.139Z,101553.44
2022-08-22T03:00:01.969Z,101563.97
2022-08-22T03:04:22.493Z,101564.53
2022-08-22T03:08:29.217Z,101559.69
2022-08-22T03:12:56.973Z,101564.31
2022-08-22T03:17:10.751Z,101576.22
2022-08-22T03:21:36.776Z,101577.38
2022-08-22T03:26:09.024Z,101574.56
2022-08-22T03:30:20.160Z,101582.56
2022-08-22T03:34:25.005Z,101570.19
2022-08-22T03:38:45.680Z,101578.94
2022-08-22T03:42:53.117Z,101583.44
2022-08-22T03:47:28.568Z,101583.63
2022-08-22T03:52:01.967Z,101586.81
2022-08-22T03:56:09.058Z,101582.56
2022-08-22T04:00:22.660Z,101591.34
2022-08-22T04:04:57.893Z,101597.25
2022-08-22T04:09:18.163Z,101591.47
2022-08-22T04:13:49.063Z,101590.91
2022-08-22T04:18:12.270Z,101594.44
2022-08-22T04:22:33.440Z,101601.34
2022-08-22T04:26:46.105Z,101608.06
2022-08-22T04:30:59.924Z,101615.03
2022-08-22T04:35:06.927Z,101614.59
2022-08-22T04:39:18.521Z,101619.47
2022-08-22T04:43:33.979Z,101621.66
2022-08-22T04:48:03.607Z,101631.38
2022-08-22T04:52:18.323Z,101620.47
2022-08-22T04:56:57.560Z,101626.41
2022-08-22T05:01:25.557Z,101627.38
2022-08-22T05:05:35.347Z,101632.03
2022-08-22T05:09:41.202Z,101629.97
2022-08-22T05:13:47.124Z,101624.16
2022-08-22T05:17:50.731Z,101638.66
2022-08-22T05:21:52.872Z,101631.94
2022-08-22T05:25:59.671Z,101635.66
2022-08-22T05:30:09.273Z,101642.50
2022-08-22T05:34:16.626Z,101643.63
2022-08-22T05:38:23.040Z,101643.91
2022-08-22T05:42:31.340Z,101646.56
2022-08-22T05:46:46.752Z,101652.84
2022-08-22T05:50:54.691Z,101659.47
2022-08-22T05:55:03.090Z,101666.94
2022-08-22T05:59:25.314Z,101673.50
2022-08-22T06:03:53.550Z,101675.19
2022-08-22T06:08:03.909Z,101682.03
2022-08-22T06:12:22.089Z,101680.97
2022-08-22T06:16:51.733Z,101688.19
2022-08-22T06:21:00.792Z,101690.13
2022-08-22T06:25:12.332Z,101688.31
2022-08-22T06:29:27.318Z,101690.19
2022-08-22T06:33:33.098Z,101698.38
2022-08-22T06:37:41.059Z,101695.78
2022-08-22T06:41:54.328Z,101700.03
2022-08-22T06:45:56.068Z,101700.31
2022-08-22T06:50:37.319Z,101697.91
2022-08-22T06:54:44.479Z,101696.41
2022-08-22T06:58:48.668Z,101694.94
2022-08-22T07:02:58.695Z,101691.06
2022-08-22T07:07:01.597Z,101700.47
2022-08-22T07:11:08.954Z,101699.81
2022-08-22T07:15:39.832Z,101700.16
2022-08-22T07:19:56.068Z,101702.25
2022-08-22T07:24:01.193Z,101705.25
2022-08-22T07:28:16.167Z,101710.19
2022-08-22T07:32:25.219Z,101710.28
2022-08-22T07:36:48.052Z,101714.53
2022-08-22T07:40:56.802Z,101708.63
2022-08-22T07:45:10.539Z,101710.22
2022-08-22T07:49:21.802Z,101714.16
2022-08-22T07:53:33.946Z,101722.44
2022-08-22T07:57:41.376Z,101714.50
2022-08-22T08:01:50.213Z,101716.69
2022-08-22T08:05:52.369Z,101719.41
2022-08-22T08:09:59.982Z,101716.69
2022-08-22T08:14:05.499Z,101729.38
2022-08-22T08:18:21.824Z,101727.47
2022-08-22T08:22:25.732Z,101723.09
2022-08-22T08:27:10.541Z,101724.56
2022-08-22T08:31:20.343Z,101730.00
2022-08-22T08:35:28.211Z,101729.66
2022-08-22T08:39:35.768Z,101723.00
2022-08-22T08:43:46.174Z,101733.28
2022-08-22T08:48:06.136Z,101725.34
2022-08-22T08:52:24.491Z,101725.22
2022-08-22T08:56:37.754Z,101727.47
2022-08-22T09:00:42.800Z,101729.13
2022-08-22T09:05:11.994Z,101723.28
2022-08-22T09:10:08.607Z,101721.81
2022-08-22T09:14:40.108Z,101720.63
2022-08-22T09:19:02.972Z,101720.78
2022-08-22T09:23:38.052Z,101718.78
2022-08-22T09:27:55.738Z,101717.50
2022-08-22T09:32:13.140Z,101714.34
2022-08-22T09:36:22.358Z,101716.84
2022-08-22T09:40:34.892Z,101707.81
2022-08-22T09:44:55.551Z,101709.84
2022-08-22T09:49:05.475Z,101697.22
2022-08-22T09:53:34.765Z,101715.38
2022-08-22T09:57:50.431Z,101702.53
2022-08-22T10:02:19.184Z,101721.75
2022-08-22T10:06:26.759Z,101716.19
2022-08-22T10:11:00.130Z,101700.28
2022-08-22T10:15:33.601Z,101710.06
2022-08-22T10:20:25.529Z,101709.78
2022-08-22T10:24:43.750Z,101710.59
2022-08-22T10:28:45.703Z,101707.38
2022-08-22T10:33:00.068Z,101705.53
2022-08-22T10:37:10.419Z,101715.94
2022-08-22T10:41:19.772Z,101709.75
2022-08-22T10:45:36.596Z,101715.31
2022-08-22T10:49:51.294Z,101715.81
2022-08-22T10:54:14.640Z,101715.53
2022-08-22T10:58:27.824Z,101718.59
2022-08-22T11:02:37.587Z,101708.84
2022-08-22T11:06:54.155Z,101715.38
2022-08-22T11:11:03.063Z,101709.41
2022-08-22T11:15:28.408Z,101714.91
2022-08-22T11:20:01.360Z,101711.78
2022-08-22T11:24:53.907Z,101722.41
2022-08-22T11:29:21.682Z,101708.97
2022-08-22T11:33:47.473Z,101719.78
2022-08-22T11:37:58.254Z,101712.13
2022-08-22T11:42:06.233Z,101719.22
2022-08-22T11:46:29.691Z,101709.03
2022-08-22T11:50:37.872Z,101714.09
2022-08-22T11:55:16.855Z,101708.31
2022-08-22T11:59:29.676Z,101695.09
2022-08-22T12:03:58.475Z,101711.72
2022-08-22T12:08:11.313Z,101696.28
2022-08-22T12:12:23.447Z,101706.88
2022-08-22T12:16:45.175Z,101711.00
2022-08-22T12:21:13.474Z,101699.00
2022-08-22T12:25:56.423Z,101703.34
2022-08-22T12:30:14.133Z,101698.44
2022-08-22T12:34:26.833Z,101701.88
2022-08-22T12:38:50.436Z,101705.47
2022-08-22T12:43:21.741Z,101694.44
2022-08-22T12:47:45.732Z,101695.50
2022-08-22T12:51:55.757Z,101692.16
2022-08-22T12:56:13.813Z,101695.28
2022-08-22T13:00:36.735Z,101690.13
2022-08-22T13:04:44.988Z,101691.31
2022-08-22T13:08:46.881Z,101697.81
2022-08-22T13:12:53.936Z,101691.09
2022-08-22T13:16:58.889Z,101686.81
2022-08-22T13:21:04.065Z,101687.50
2022-08-22T13:25:14.569Z,101682.75
2022-08-22T13:29:57.130Z,101688.00
2022-08-22T13:34:01.600Z,101696.31
2022-08-22T13:38:12.956Z,101694.41
2022-08-22T13:42:27.589Z,101691.16
2022-08-22T13:46:35.524Z,101687.72
2022-08-22T13:51:04.954Z,101683.63
2022-08-22T13:55:27.633Z,101689.50
2022-08-22T13:59:59.450Z,101681.44
2022-08-22T14:04:31.997Z,101682.97
2022-08-22T14:08:45.793Z,101691.91
2022-08-22T14:12:56.591Z,101696.31
2022-08-22T14:16:59.365Z,101697.91
2022-08-22T14:21:25.244Z,101697.53
2022-08-22T14:25:35.198Z,101703.28
2022-08-22T14:29:56.796Z,101696.97
2022-08-22T14:34:13.471Z,101705.28
2022-08-22T14:38:29.789Z,101698.41
2022-08-22T14:42:47.791Z,101701.09
2022-08-22T14:47:30.337Z,101702.00
2022-08-22T14:51:28.256Z,101700.75
2022-08-22T14:55:30.644Z,101699.19
2022-08-22T14:59:52.281Z,101701.69
2022-08-22T15:04:01.044Z,101693.19
2022-08-22T15:08:05.427Z,101701.69
2022-08-22T15:12:21.416Z,101690.44
2022-08-22T15:16:56.779Z,101687.16
2022-08-22T15:21:25.341Z,101678.63
2022-08-22T15:25:40.978Z,101680.84
2022-08-22T15:29:56.124Z,101684.47
2022-08-22T15:34:11.331Z,101686.72
2022-08-22T15:38:32.585Z,101681.00
2022-08-22T15:42:47.179Z,101676.44
2022-08-22T15:46:51.352Z,101675.75
2022-08-22T15:51:25.302Z,101680.78
2022-08-22T15:55:28.105Z,101676.13
2022-08-22T15:59:54.232Z,101667.91
2022-08-22T16:04:02.448Z,101663.88
2022-08-22T16:08:09.282Z,101668.16
2022-08-22T16:12:28.328Z,101668.88
2022-08-22T16:16:41.695Z,101662.56
2022-08-22T16:20:51.771Z,101659.84
2022-08-22T16:24:59.663Z,101660.66
2022-08-22T16:29:14.695Z,101660.72
2022-08-22T16:33:39.948Z,101657.13
2022-08-22T16:37:47.473Z,101658.41
2022-08-22T16:41:50.730Z,101654.97
2022-08-22T16:45:53.078Z,101670.31
2022-08-22T16:50:00.420Z,101665.91
2022-08-22T16:54:08.681Z,101669.53
2022-08-22T16:58:56.645Z,101673.03
2022-08-22T17:03:18.190Z,101671.41
2022-08-22T17:07:54.020Z,101673.94
2022-08-22T17:12:24.089Z,101678.72
2022-08-22T17:16:34.607Z,101679.56
2022-08-22T17:21:13.620Z,101681.09
2022-08-22T17:25:46.188Z,101680.44
2022-08-22T17:30:02.931Z,101689.63
2022-08-22T17:34:25.461Z,101690.84
2022-08-22T17:38:46.380Z,101693.38
2022-08-22T17:43:16.105Z,101700.28
2022-08-22T17:47:23.419Z,101688.13
2022-08-22T17:51:43.199Z,101685.69
2022-08-22T17:56:17.877Z,101699.34
2022-08-22T18:00:31.362Z,101693.31
2022-08-22T18:05:16.612Z,101698.41
2022-08-22T18:09:29.122Z,101704.63
2022-08-22T18:13:42.088Z,101711.50
2022-08-22T18:18:09.423Z,101708.69
2022-08-22T18:22:19.804Z,101708.81
2022-08-22T18:26:36.691Z,101717.41
2022-08-22T18:31:02.312Z,101722.84
2022-08-22T18:35:14.233Z,101725.06
2022-08-22T18:39:27.340Z,101721.47
2022-08-22T18:43:44.992Z,101726.75
2022-08-22T18:47:55.466Z,101728.16
2022-08-22T18:52:13.636Z,101730.63
2022-08-22T18:56:34.127Z,101739.25
2022-08-22T19:00:50.796Z,101736.31
2022-08-22T19:05:19.471Z,101741.09
2022-08-22T19:09:44.089Z,101741.94
2022-08-22T19:14:25.569Z,101735.59
2022-08-22T19:18:36.284Z,101738.16
2022-08-22T19:22:38.110Z,101739.94
2022-08-22T19:26:47.787Z,101741.00
2022-08-22T19:30:53.078Z,101743.75
2022-08-22T19:35:23.562Z,101749.34
2022-08-22T19:39:40.049Z,101744.00
2022-08-22T19:43:44.176Z,101751.72
2022-08-22T19:47:55.595Z,101753.63
2022-08-22T19:52:22.919Z,101745.69
2022-08-22T19:56:54.891Z,101751.75
2022-08-22T20:01:02.223Z,101744.28
2022-08-22T20:05:22.132Z,101744.91
2022-08-22T20:10:08.904Z,101756.22
2022-08-22T20:14:30.494Z,101753.75
2022-08-22T20:19:05.089Z,101742.88
2022-08-22T20:23:33.939Z,101751.06
2022-08-22T20:27:42.337Z,101754.97
2022-08-22T20:31:48.618Z,101756.09
2022-08-22T20:35:56.080Z,101750.53
2022-08-22T20:40:21.053Z,101753.69
2022-08-22T20:44:40.447Z,101751.84
2022-08-22T20:48:43.595Z,101755.16
2022-08-22T20:52:54.381Z,101751.78
2022-08-22T20:57:02.883Z,101745.97
2022-08-22T21:01:07.292Z,101746.75
2022-08-22T21:05:22.340Z,101749.78
2022-08-22T21:09:42.621Z,101753.78
2022-08-22T21:13:44.127Z,101757.63
2022-08-22T21:17:45.576Z,101764.19
2022-08-22T21:21:47.223Z,101756.56
2022-08-22T21:25:53.787Z,101754.34
2022-08-22T21:29:59.401Z,101760.09
2022-08-22T21:34:02.152Z,101758.78
2022-08-22T21:38:04.025Z,101766.25
2022-08-22T21:42:05.592Z,101768.28
2022-08-22T21:46:07.856Z,101763.28
2022-08-22T21:50:21.169Z,101766.63
2022-08-22T21:54:25.498Z,101774.44
2022-08-22T21:58:35.035Z,101773.31
2022-08-22T22:02:40.950Z,101769.59
2022-08-22T22:06:43.208Z,101770.03
2022-08-22T22:10:46.631Z,101767.47
2022-08-22T22:14:49.427Z,101767.69
2022-08-22T22:18:50.916Z,101770.13
2022-08-22T22:22:52.366Z,101774.78
2022-08-22T22:26:53.873Z,101779.78
2022-08-22T22:30:55.359Z,101781.03
2022-08-22T22:34:56.922Z,101778.25
2022-08-22T22:38:58.720Z,101784.31
2022-08-22T22:43:00.205Z,101768.47
2022-08-22T22:47:02.931Z,101765.94
2022-08-22T22:51:08.971Z,101760.59
2022-08-22T22:55:10.529Z,101763.97
2022-08-22T22:59:13.515Z,101766.94
2022-08-22T23:03:16.256Z,101766.16
2022-08-22T23:07:18.508Z,101768.34
2022-08-22T23:11:27.248Z,101759.09
2022-08-22T23:15:28.708Z,101754.34
2022-08-22T23:19:30.954Z,101756.41
2022-08-22T23:23:32.401Z,101753.91
2022-08-22T23:27:33.881Z,101751.94
2022-08-22T23:31:41.346Z,101748.06
2022-08-22T23:35:42.793Z,101749.81
2022-08-22T23:39:44.792Z,101747.91
2022-08-22T23:43:49.117Z,101755.47
2022-08-22T23:47:50.554Z,101761.31
2022-08-22T23:51:52.424Z,101755.84
2022-08-22T23:55:53.906Z,101756.09
2022-08-22T23:59:58.007Z,101755.00
